Bromptonville, Canada
Current Conditions -  °F | °C
As of 7:00 PM on Sunday 25 Jan 2015 (Local Time) from CYSC Reporting Station
Clear Clear  
Wind Chill: -11°   Ceiling: Unl
Heat Index:   Visibility: 9mi
Dew Point: -4°   Wind: 7mph
Humidity: 78%   Direction: 220°SW
Pressure: 29.91"   Gusts: NA
Location:  45.47°N, 71.94°W
Report Text: CYSC 260000Z AUTO 22006KT 9SM CLR M17/M20 A2991 RMK SLP149
Loading
Personal Weather Stations






























Interactive Weather Map New forecast layout! Learn more

10-Day Weather Forecast

Advertisements
Track Severe Weather on mobile